SBSN/STM METAR and TAF weather

Enter ICAO airport designator
Station Type Date Time Source
SBSN METAR 2018/12/13 22:00 UTC NOAA

SBSN 132200Z 09003KT 9999 FEW020 27/23 Q1009


Station Type Date Time Source
SBSN Decoded METAR 2018/12/13 22:00 UTC NOAA

Santarem-Aeroporto, Brazil (SBSN) 02-26S 054-43W 72M
Dec 13, 2018 - 05:00 PM EST / 2018.12.13 2200 UTC
Wind: from the E (090 degrees) at 3 MPH (3 KT):0
Visibility: greater than 7 mile(s):0
Sky conditions: mostly clear
Temperature: 80 F (27 C)
Dew Point: 73 F (23 C)
Relative Humidity: 78%
Pressure (altimeter): 29.80 in. Hg (1009 hPa)
ob: SBSN 132200Z 09003KT 9999 FEW020 27/23 Q1009
cycle: 22

Station Type Date Time Source
SBSN TAF 2018/12/13 18:45 UTC NOAA

TAF SBSN 131600Z 1318/1418 09012KT 9999 SCT020 TX31/1318Z TN25/1407Z
BECMG 1319/1321 14002KT
BECMG 1323/1401 CAVOK
BECMG 1403/1405 04005KT 9999 SCT015
BECMG 1407/1409 07007KT FEW012
BECMG 1411/1413 07010KT SCT017
RMK PCQ


Example: see airport list